Time;durP1;ratioP1;P1;durP2;ratioP2;P2;SDS_P1;SDS_P2;PMS_P1;PMS_P2;Temp;Humidity;BMP_temperature;BMP_pressure;BME280_temperature;BME280_humidity;BME280_pressure;Samples;Min_cycle;Max_cycle;Signal;HPM_P1;HPM_P2
2021/12/17 00:00:58;;;;;;;;;;;3.40;99.90;;;;;;4988300;28;20016;-83
2021/12/17 00:03:36;;;;;;;;;;;3.40;99.90;;;;;;4998399;28;19941;-83
2021/12/17 00:06:13;;;;;;;;;;;3.40;99.90;;;;;;4995957;28;19929;-83
2021/12/17 00:08:41;;;;;;;;;;;3.40;99.90;;;;;;5016308;28;19936;-84
2021/12/17 00:11:10;;;;;;;;;;;3.40;99.90;;;;;;4991654;28;19934;-83
2021/12/17 00:13:38;;;;;;;;;;;3.40;99.90;;;;;;5005373;28;19931;-83
2021/12/17 00:16:14;;;;;;;;;;;3.40;99.90;;;;;;4991497;28;19929;-83
2021/12/17 00:18:54;;;;;;;;;;;3.40;99.90;;;;;;4996725;28;19953;-84
2021/12/17 00:48:52;;;;;;;;;;;3.40;99.90;;;;;;4987586;28;19933;-83
2021/12/17 00:54:12;;;;;;;;;;;3.40;99.90;;;;;;4997872;28;19922;-84
2021/12/17 00:56:40;;;;;;;;;;;3.40;99.90;;;;;;4999394;28;21129;-83
2021/12/17 00:59:07;;;;;;;;;;;3.40;99.90;;;;;;5003477;28;19933;-82
2021/12/17 01:01:34;;;;;;;;;;;3.40;99.90;;;;;;5004509;28;19933;-84
2021/12/17 01:04:02;;;;;;;;;;;3.40;99.90;;;;;;4986186;28;19925;-84
2021/12/17 01:06:30;;;;;;;;;;;3.40;99.90;;;;;;4997792;28;20165;-84
2021/12/17 01:08:57;;;;;;;;;;;3.40;99.90;;;;;;4990781;28;19934;-83
2021/12/17 01:11:26;;;;;;;;;;;3.40;99.90;;;;;;4993265;28;19926;-84
2021/12/17 01:14:03;;;;;;;;;;;3.40;99.90;;;;;;4992534;28;19931;-86
2021/12/17 01:17:05;;;;;;;;;;;3.40;99.90;;;;;;5007334;28;19988;-83
2021/12/17 01:20:21;;;;;;;;;;;3.40;99.90;;;;;;4997751;28;19944;-86
2021/12/17 01:23:03;;;;;;;;;;;3.40;99.90;;;;;;4986916;28;19960;-83
2021/12/17 01:43:18;;;;;;;;;;;3.40;99.90;;;;;;4984138;28;19952;-83
2021/12/17 01:45:47;;;;;;;;;;;3.40;99.90;;;;;;4987233;28;19925;-84
2021/12/17 01:48:19;;;;;;;;;;;3.40;99.90;;;;;;4987898;28;19926;-83
2021/12/17 01:56:30;;;;;;;;;;;3.40;99.90;;;;;;4996281;28;19921;-85
2021/12/17 02:01:44;;;;;;;;;;;3.40;99.90;;;;;;4993197;28;19925;-82
2021/12/17 02:04:11;;;;;;;;;;;3.50;99.90;;;;;;4987713;28;20194;-83
2021/12/17 02:06:39;;;;;;;;;;;3.40;99.90;;;;;;4995750;28;20299;-83
2021/12/17 02:09:16;;;;;;;;;;;3.40;99.90;;;;;;4982478;28;19981;-84
2021/12/17 02:12:14;;;;;;;;;;;3.40;99.90;;;;;;5009243;28;19925;-84
2021/12/17 02:20:25;;;;;;;;;;;3.40;99.90;;;;;;4996374;28;20429;-83
2021/12/17 02:23:22;;;;;;;;;;;3.50;99.90;;;;;;4979330;28;19933;-84
2021/12/17 02:28:46;;;;;;;;;;;3.40;99.90;;;;;;4995106;28;20387;-83
2021/12/17 02:31:25;;;;;;;;;;;3.40;99.90;;;;;;4991069;28;19947;-84
2021/12/17 02:33:52;;;;;;;;;;;3.40;99.90;;;;;;5000426;28;20442;-84
2021/12/17 02:36:23;;;;;;;;;;;3.40;99.90;;;;;;4992436;28;19934;-83
2021/12/17 02:38:57;;;;;;;;;;;3.40;99.90;;;;;;4986687;28;19925;-83
2021/12/17 02:47:17;;;;;;;;;;;3.50;99.90;;;;;;4991962;28;19930;-83
2021/12/17 02:49:46;;;;;;;;;;;3.50;99.90;;;;;;4986975;28;19933;-84
2021/12/17 02:52:14;;;;;;;;;;;3.40;99.90;;;;;;5001129;28;20446;-84
2021/12/17 02:54:43;;;;;;;;;;;3.50;99.90;;;;;;4997632;28;20012;-83
2021/12/17 02:57:11;;;;;;;;;;;3.50;99.90;;;;;;5004730;28;19926;-83
2021/12/17 02:59:40;;;;;;;;;;;3.50;99.90;;;;;;4991589;28;19925;-83
2021/12/17 03:02:08;;;;;;;;;;;3.50;99.90;;;;;;4985410;28;21593;-84
2021/12/17 03:04:36;;;;;;;;;;;3.50;99.90;;;;;;4985117;28;19941;-83
2021/12/17 03:07:04;;;;;;;;;;;3.50;99.90;;;;;;4984259;28;20386;-83
2021/12/17 03:09:46;;;;;;;;;;;3.50;99.90;;;;;;4989957;28;19963;-82
2021/12/17 03:12:19;;;;;;;;;;;3.50;99.90;;;;;;4983175;28;19972;-83
2021/12/17 03:14:53;;;;;;;;;;;3.50;99.90;;;;;;4996421;28;19930;-83
2021/12/17 03:17:37;;;;;;;;;;;3.50;99.90;;;;;;4987763;28;19929;-81
2021/12/17 03:25:34;;;;;;;;;;;3.50;99.90;;;;;;4995199;28;19925;-83
2021/12/17 03:28:02;;;;;;;;;;;3.50;99.90;;;;;;5000137;28;19930;-84
2021/12/17 03:30:30;;;;;;;;;;;3.50;99.90;;;;;;4981319;28;19926;-83
2021/12/17 03:32:57;;;;;;;;;;;3.40;99.90;;;;;;5001008;28;19955;-84
2021/12/17 03:35:25;;;;;;;;;;;3.50;99.90;;;;;;4989634;28;20012;-83
2021/12/17 03:37:52;;;;;;;;;;;3.50;99.90;;;;;;4986477;28;19929;-83
2021/12/17 03:40:20;;;;;;;;;;;3.50;99.90;;;;;;4989626;28;19930;-82
2021/12/17 03:42:51;;;;;;;;;;;3.50;99.90;;;;;;4996884;28;19926;-84
2021/12/17 03:45:21;;;;;;;;;;;3.50;99.90;;;;;;4990398;28;19933;-84
2021/12/17 03:47:53;;;;;;;;;;;3.50;99.90;;;;;;4988999;28;19932;-84
2021/12/17 03:50:23;;;;;;;;;;;3.50;99.90;;;;;;4993625;28;19936;-83
2021/12/17 03:52:50;;;;;;;;;;;3.50;99.90;;;;;;5008076;28;19957;-85
2021/12/17 03:55:18;;;;;;;;;;;3.50;99.90;;;;;;4993204;28;19947;-84
2021/12/17 03:57:48;;;;;;;;;;;3.50;99.90;;;;;;4987734;28;19949;-84
2021/12/17 04:00:16;;;;;;;;;;;3.50;99.90;;;;;;4995573;28;19925;-84
2021/12/17 04:02:47;;;;;;;;;;;3.50;99.90;;;;;;5005887;28;19933;-83
2021/12/17 04:05:33;;;;;;;;;;;3.50;99.90;;;;;;4991932;28;19933;-83
2021/12/17 04:08:20;;;;;;;;;;;3.50;99.90;;;;;;4999876;28;19929;-83
2021/12/17 04:11:08;;;;;;;;;;;3.50;99.90;;;;;;4999871;28;19932;-86
2021/12/17 04:13:38;;;;;;;;;;;3.50;99.90;;;;;;4997102;28;20033;-83
2021/12/17 04:16:09;;;;;;;;;;;3.50;99.90;;;;;;4991246;28;19980;-85
2021/12/17 04:18:41;;;;;;;;;;;3.50;99.90;;;;;;4988003;28;19941;-86
2021/12/17 04:21:13;;;;;;;;;;;3.50;99.90;;;;;;4986694;28;21986;-83
2021/12/17 04:23:41;;;;;;;;;;;3.50;99.90;;;;;;4992611;28;19965;-84
2021/12/17 04:26:08;;;;;;;;;;;3.50;99.90;;;;;;4992515;28;19925;-83
2021/12/17 04:28:41;;;;;;;;;;;3.50;99.90;;;;;;4986878;28;20758;-83
2021/12/17 04:31:09;;;;;;;;;;;3.50;99.90;;;;;;5001343;28;19975;-85
2021/12/17 04:33:41;;;;;;;;;;;3.50;99.90;;;;;;4985802;28;19930;-83
2021/12/17 04:36:11;;;;;;;;;;;3.50;99.90;;;;;;4983963;28;20087;-86
2021/12/17 04:38:38;;;;;;;;;;;3.50;99.90;;;;;;4987888;28;19965;-84
2021/12/17 04:41:37;;;;;;;;;;;3.50;99.90;;;;;;4995165;28;19926;-86
2021/12/17 04:44:08;;;;;;;;;;;3.50;99.90;;;;;;4996448;28;19929;-84
2021/12/17 04:46:40;;;;;;;;;;;3.50;99.90;;;;;;4986192;28;20658;-85
2021/12/17 04:57:34;;;;;;;;;;;3.60;99.90;;;;;;4995447;28;19972;-85
2021/12/17 05:00:05;;;;;;;;;;;3.60;99.90;;;;;;4994735;28;19979;-85
2021/12/17 05:02:38;;;;;;;;;;;3.60;99.90;;;;;;4987951;28;20369;-84
2021/12/17 05:05:10;;;;;;;;;;;3.60;99.90;;;;;;4991453;28;19936;-83
2021/12/17 05:07:47;;;;;;;;;;;3.50;99.90;;;;;;4983227;28;19925;-85
2021/12/17 05:10:22;;;;;;;;;;;3.60;99.90;;;;;;4991691;28;20303;-83
2021/12/17 05:18:24;;;;;;;;;;;3.60;99.90;;;;;;4989800;28;20020;-84
2021/12/17 05:21:02;;;;;;;;;;;3.60;99.90;;;;;;4982501;28;19930;-84
2021/12/17 05:23:37;;;;;;;;;;;3.50;99.90;;;;;;4990930;28;20037;-84
2021/12/17 05:26:10;;;;;;;;;;;3.60;99.90;;;;;;4995088;28;19970;-86
2021/12/17 05:28:42;;;;;;;;;;;3.60;99.90;;;;;;4986850;28;19926;-84
2021/12/17 05:31:10;;;;;;;;;;;3.60;99.90;;;;;;4986744;28;20215;-84
2021/12/17 05:33:43;;;;;;;;;;;3.60;99.90;;;;;;4989441;28;20406;-85
2021/12/17 05:36:12;;;;;;;;;;;3.60;99.90;;;;;;4989930;28;19925;-83
2021/12/17 05:38:46;;;;;;;;;;;3.60;99.90;;;;;;4983254;28;19994;-84
2021/12/17 05:41:13;;;;;;;;;;;3.60;99.90;;;;;;4988979;28;19929;-86
2021/12/17 05:44:03;;;;;;;;;;;3.60;99.90;;;;;;5005533;28;19925;-83
2021/12/17 05:46:48;;;;;;;;;;;3.60;99.90;;;;;;4987756;28;19964;-82
2021/12/17 05:49:16;;;;;;;;;;;3.60;99.90;;;;;;4982309;28;19925;-84
2021/12/17 05:51:45;;;;;;;;;;;3.60;99.90;;;;;;4989327;28;20494;-85
2021/12/17 05:54:12;;;;;;;;;;;3.60;99.90;;;;;;4995722;28;19933;-84
2021/12/17 05:56:44;;;;;;;;;;;3.60;99.90;;;;;;4992245;28;19926;-84
2021/12/17 05:59:11;;;;;;;;;;;3.60;99.90;;;;;;4992365;28;20330;-84
2021/12/17 06:01:39;;;;;;;;;;;3.60;99.90;;;;;;4984303;28;20379;-85
2021/12/17 06:04:06;;;;;;;;;;;3.60;99.90;;;;;;4992549;28;19937;-84
2021/12/17 06:06:49;;;;;;;;;;;3.60;99.90;;;;;;4995674;28;20391;-85
2021/12/17 06:09:17;;;;;;;;;;;3.60;99.90;;;;;;4988613;28;19926;-82
2021/12/17 06:11:45;;;;;;;;;;;3.60;99.90;;;;;;4984883;28;19968;-83
2021/12/17 06:14:16;;;;;;;;;;;3.60;99.90;;;;;;5015621;28;19930;-83
2021/12/17 06:16:43;;;;;;;;;;;3.60;99.90;;;;;;4992527;28;19934;-84
2021/12/17 06:19:17;;;;;;;;;;;3.60;99.90;;;;;;4985467;28;20183;-84
2021/12/17 06:21:47;;;;;;;;;;;3.60;99.90;;;;;;5000217;28;19933;-82
2021/12/17 06:24:16;;;;;;;;;;;3.60;99.90;;;;;;4986779;28;19933;-85
2021/12/17 06:26:43;;;;;;;;;;;3.60;99.90;;;;;;4991716;28;19948;-83
2021/12/17 06:29:10;;;;;;;;;;;3.60;99.90;;;;;;4984068;28;19933;-83
2021/12/17 06:31:37;;;;;;;;;;;3.60;99.90;;;;;;4992981;28;20343;-85
2021/12/17 06:34:08;;;;;;;;;;;3.60;99.90;;;;;;4981180;28;19932;-84
2021/12/17 06:36:35;;;;;;;;;;;3.60;99.90;;;;;;4991553;28;19930;-79
2021/12/17 06:39:03;;;;;;;;;;;3.60;99.90;;;;;;4988695;28;19941;-83
2021/12/17 06:41:35;;;;;;;;;;;3.70;99.90;;;;;;4987729;28;19948;-84
2021/12/17 06:44:02;;;;;;;;;;;3.80;99.90;;;;;;4988186;28;20458;-86
2021/12/17 06:46:36;;;;;;;;;;;3.80;99.90;;;;;;4971603;28;19936;-84
2021/12/17 06:49:20;;;;;;;;;;;3.80;99.90;;;;;;4985434;28;19984;-84
2021/12/17 06:54:50;;;;;;;;;;;4.00;99.90;;;;;;4998691;28;19925;-84
2021/12/17 07:01:12;;;;;;;;;;;4.00;99.90;;;;;;4928510;28;19993;-85
2021/12/17 07:10:15;;;;;;;;;;;4.00;99.90;;;;;;4988391;28;19925;-86
2021/12/17 07:32:47;;;;;;;;;;;3.90;99.90;;;;;;4955179;28;20181;-80
2021/12/17 07:35:40;;;;;;;;;;;3.90;99.90;;;;;;4969331;28;19940;-79
2021/12/17 07:40:55;;;;;;;;;;;3.90;99.90;;;;;;4977852;28;20286;-79
2021/12/17 07:43:37;;;;;;;;;;;3.90;99.90;;;;;;4964137;28;20652;-80
2021/12/17 07:46:13;;;;;;;;;;;3.90;99.90;;;;;;4970761;28;19961;-79
2021/12/17 07:48:40;;;;;;;;;;;3.90;99.90;;;;;;4960457;28;19930;-79
2021/12/17 07:51:13;;;;;;;;;;;3.90;99.90;;;;;;4962528;28;19941;-79
2021/12/17 07:54:07;;;;;;;;;;;3.90;99.90;;;;;;4975126;28;19952;-79
2021/12/17 07:56:37;;;;;;;;;;;3.90;99.90;;;;;;4969380;28;20368;-79
2021/12/17 07:59:11;;;;;;;;;;;3.90;99.90;;;;;;4965018;28;21230;-78
2021/12/17 08:01:40;;;;;;;;;;;3.90;99.90;;;;;;4982266;28;19964;-79
2021/12/17 08:04:08;;;;;;;;;;;3.90;99.90;;;;;;4982972;28;19973;-79
2021/12/17 08:06:52;;;;;;;;;;;3.90;99.90;;;;;;4970455;28;20299;-80
2021/12/17 08:09:28;;;;;;;;;;;3.90;99.90;;;;;;4961377;28;19937;-79
2021/12/17 08:11:56;;;;;;;;;;;3.90;99.90;;;;;;4974378;28;19926;-79
2021/12/17 08:14:29;;;;;;;;;;;3.90;99.90;;;;;;4973002;28;19926;-79
2021/12/17 08:17:07;;;;;;;;;;;3.90;99.90;;;;;;4971617;28;19932;-78
2021/12/17 08:25:12;;;;;;;;;;;3.90;99.90;;;;;;4976941;28;20366;-79
2021/12/17 08:27:49;;;;;;;;;;;3.90;99.90;;;;;;4968510;28;20438;-79
2021/12/17 08:30:23;;;;;;;;;;;3.90;99.90;;;;;;4967667;28;20331;-79
2021/12/17 08:33:01;;;;;;;;;;;3.90;99.90;;;;;;4962135;28;20021;-78
2021/12/17 08:35:28;;;;;;;;;;;4.00;99.90;;;;;;4961649;28;19941;-79
2021/12/17 08:38:03;;;;;;;;;;;3.90;99.90;;;;;;4963468;28;19926;-79
2021/12/17 08:40:31;;;;;;;;;;;4.00;99.90;;;;;;4959516;28;20051;-79
2021/12/17 08:43:01;;;;;;;;;;;3.90;99.90;;;;;;4966105;28;19934;-78
2021/12/17 08:45:29;;;;;;;;;;;4.00;99.90;;;;;;4967004;28;20395;-79
2021/12/17 08:48:36;;;;;;;;;;;4.00;99.90;;;;;;4902361;29;19974;-79
2021/12/17 08:51:23;;;;;;;;;;;4.00;99.90;;;;;;4933259;28;19938;-79
2021/12/17 08:53:50;;;;;;;;;;;4.00;99.90;;;;;;4959725;28;19940;-79
2021/12/17 08:56:22;;;;;;;;;;;4.00;99.90;;;;;;4981394;28;19981;-79
2021/12/17 08:58:51;;;;;;;;;;;4.00;99.90;;;;;;4972411;28;19984;-79
2021/12/17 09:01:18;;;;;;;;;;;4.00;99.90;;;;;;4956005;28;19926;-79
2021/12/17 09:03:47;;;;;;;;;;;4.00;99.90;;;;;;4973510;28;19926;-78
2021/12/17 09:06:30;;;;;;;;;;;4.00;99.90;;;;;;4969740;28;19926;-79
2021/12/17 09:08:57;;;;;;;;;;;4.00;99.90;;;;;;4968544;28;19973;-79
2021/12/17 09:11:25;;;;;;;;;;;4.00;99.90;;;;;;4966878;28;20058;-78
2021/12/17 09:13:56;;;;;;;;;;;4.00;99.90;;;;;;4965782;28;19976;-79
2021/12/17 09:16:27;;;;;;;;;;;4.00;99.90;;;;;;4963667;28;19934;-80
2021/12/17 09:18:57;;;;;;;;;;;4.00;99.90;;;;;;4958988;28;19934;-80
2021/12/17 09:21:31;;;;;;;;;;;4.00;99.90;;;;;;4964926;28;19980;-80
2021/12/17 09:24:04;;;;;;;;;;;4.00;99.90;;;;;;4956312;28;19934;-80
2021/12/17 09:26:51;;;;;;;;;;;4.00;99.90;;;;;;4976605;28;21585;-80
2021/12/17 09:29:22;;;;;;;;;;;4.00;99.90;;;;;;4969555;28;20020;-80
2021/12/17 09:31:49;;;;;;;;;;;4.00;99.90;;;;;;4963249;28;19945;-80
2021/12/17 09:34:17;;;;;;;;;;;4.00;99.90;;;;;;4968598;28;19972;-80
2021/12/17 09:36:44;;;;;;;;;;;4.00;99.90;;;;;;4966848;28;19937;-78
2021/12/17 09:39:11;;;;;;;;;;;4.00;99.90;;;;;;4981283;28;19941;-79
2021/12/17 09:41:43;;;;;;;;;;;4.00;99.90;;;;;;4962651;28;19933;-79
2021/12/17 09:44:13;;;;;;;;;;;4.00;99.90;;;;;;4957779;28;20783;-80
2021/12/17 09:46:41;;;;;;;;;;;4.00;99.90;;;;;;4981161;28;19932;-79
2021/12/17 09:49:08;;;;;;;;;;;4.00;99.90;;;;;;4971165;28;19929;-78
2021/12/17 09:51:38;;;;;;;;;;;4.00;99.90;;;;;;4964638;28;19934;-80
2021/12/17 09:54:05;;;;;;;;;;;4.00;99.90;;;;;;4977614;28;19926;-79
2021/12/17 09:56:32;;;;;;;;;;;4.00;99.90;;;;;;4983592;28;19926;-79
2021/12/17 09:59:01;;;;;;;;;;;4.00;99.90;;;;;;4968925;28;19945;-80
2021/12/17 10:01:28;;;;;;;;;;;4.10;99.90;;;;;;4966446;28;19932;-79
2021/12/17 10:04:14;;;;;;;;;;;4.00;99.90;;;;;;4969670;28;19926;-79
2021/12/17 10:06:42;;;;;;;;;;;4.10;99.90;;;;;;4984697;28;19930;-79
2021/12/17 10:09:09;;;;;;;;;;;4.00;99.90;;;;;;4964774;28;19927;-79
2021/12/17 10:11:36;;;;;;;;;;;4.10;99.90;;;;;;4967749;28;19961;-79
2021/12/17 10:14:16;;;;;;;;;;;4.10;99.90;;;;;;4979195;28;19925;-79
2021/12/17 10:16:43;;;;;;;;;;;4.10;99.90;;;;;;4984577;28;19937;-81
2021/12/17 10:19:10;;;;;;;;;;;4.10;99.90;;;;;;4988680;28;19992;-79
2021/12/17 10:21:44;;;;;;;;;;;4.10;99.90;;;;;;4982455;28;20323;-79
2021/12/17 10:24:23;;;;;;;;;;;4.10;99.90;;;;;;4970624;28;19934;-81
2021/12/17 10:26:50;;;;;;;;;;;4.10;99.90;;;;;;4990597;28;19937;-80
2021/12/17 10:29:20;;;;;;;;;;;4.10;99.90;;;;;;4966959;28;19926;-81
2021/12/17 10:31:55;;;;;;;;;;;4.10;99.90;;;;;;4988408;28;20375;-81
2021/12/17 10:34:24;;;;;;;;;;;4.20;99.90;;;;;;4989938;28;19926;-79
2021/12/17 10:36:51;;;;;;;;;;;4.20;99.90;;;;;;4989793;28;20012;-79
2021/12/17 10:39:23;;;;;;;;;;;4.20;99.90;;;;;;4992363;28;20024;-79
2021/12/17 10:41:50;;;;;;;;;;;4.20;99.90;;;;;;4975963;28;19988;-79
2021/12/17 10:44:19;;;;;;;;;;;4.20;99.90;;;;;;4968415;28;19934;-79
2021/12/17 10:47:05;;;;;;;;;;;4.20;99.90;;;;;;4982796;28;19926;-79
2021/12/17 10:49:32;;;;;;;;;;;4.20;99.90;;;;;;4984803;28;19929;-80
2021/12/17 10:52:03;;;;;;;;;;;4.30;99.90;;;;;;4986976;28;19933;-80
2021/12/17 10:54:34;;;;;;;;;;;4.30;99.90;;;;;;4966370;28;19926;-79
2021/12/17 10:57:01;;;;;;;;;;;4.30;99.90;;;;;;4983145;28;19981;-80
2021/12/17 10:59:31;;;;;;;;;;;4.30;99.90;;;;;;4966357;28;19933;-79
2021/12/17 11:02:02;;;;;;;;;;;4.20;99.90;;;;;;4981167;28;19985;-80
2021/12/17 11:04:29;;;;;;;;;;;4.30;99.90;;;;;;4980198;28;20361;-80
2021/12/17 11:06:57;;;;;;;;;;;4.30;99.90;;;;;;4988021;28;19926;-79
2021/12/17 11:09:53;;;;;;;;;;;4.30;99.90;;;;;;4969273;28;19934;-80
2021/12/17 11:12:38;;;;;;;;;;;4.30;99.90;;;;;;4979807;28;20265;-80
2021/12/17 11:15:09;;;;;;;;;;;4.30;99.90;;;;;;4985578;28;19937;-79
2021/12/17 11:17:38;;;;;;;;;;;4.30;99.90;;;;;;4977517;28;19926;-79
2021/12/17 11:20:10;;;;;;;;;;;4.30;99.90;;;;;;4972226;28;20386;-80
2021/12/17 11:22:37;;;;;;;;;;;4.30;99.90;;;;;;4977941;28;19926;-79
2021/12/17 11:25:04;;;;;;;;;;;4.30;99.90;;;;;;4985723;28;19930;-79
2021/12/17 11:27:31;;;;;;;;;;;4.30;99.90;;;;;;4968916;28;20396;-79
2021/12/17 11:30:00;;;;;;;;;;;4.30;99.90;;;;;;4986536;28;19954;-80
2021/12/17 11:32:27;;;;;;;;;;;4.30;99.90;;;;;;4964764;28;19933;-79
2021/12/17 11:34:54;;;;;;;;;;;4.30;99.90;;;;;;4989120;28;19926;-79
2021/12/17 11:37:23;;;;;;;;;;;4.30;99.90;;;;;;4984936;28;19966;-79
2021/12/17 11:39:53;;;;;;;;;;;4.30;99.90;;;;;;4968311;28;19934;-78
2021/12/17 11:42:29;;;;;;;;;;;4.30;99.90;;;;;;4979905;28;19965;-79
2021/12/17 11:47:39;;;;;;;;;;;4.30;99.90;;;;;;4975421;28;19929;-80
2021/12/17 11:50:07;;;;;;;;;;;4.40;99.90;;;;;;4969451;28;19933;-80
2021/12/17 11:52:39;;;;;;;;;;;4.40;99.90;;;;;;4971873;28;19934;-80
2021/12/17 11:55:33;;;;;;;;;;;4.40;99.90;;;;;;4975361;28;19980;-80
2021/12/17 11:58:01;;;;;;;;;;;4.30;99.90;;;;;;4971774;28;19930;-81
2021/12/17 12:00:31;;;;;;;;;;;4.30;99.90;;;;;;4968111;28;20392;-80
2021/12/17 12:03:13;;;;;;;;;;;4.30;99.90;;;;;;4979856;28;20410;-79
2021/12/17 12:05:41;;;;;;;;;;;4.50;99.90;;;;;;4978382;28;19925;-80
2021/12/17 12:08:27;;;;;;;;;;;4.40;99.90;;;;;;4973702;28;20466;-79
2021/12/17 12:11:03;;;;;;;;;;;4.40;99.90;;;;;;4981205;28;19926;-80
2021/12/17 12:13:35;;;;;;;;;;;4.40;99.90;;;;;;4986885;28;19930;-79
2021/12/17 12:16:03;;;;;;;;;;;4.40;99.90;;;;;;4971424;28;19972;-80
2021/12/17 12:18:42;;;;;;;;;;;4.40;99.90;;;;;;4968459;28;20303;-80
2021/12/17 12:21:11;;;;;;;;;;;4.40;99.90;;;;;;4970517;28;19948;-79
2021/12/17 12:23:40;;;;;;;;;;;4.40;99.90;;;;;;4976389;28;20184;-80
2021/12/17 12:26:16;;;;;;;;;;;4.40;99.90;;;;;;4975111;28;19926;-80
2021/12/17 12:28:48;;;;;;;;;;;4.40;99.90;;;;;;4969970;28;20419;-79
2021/12/17 12:31:15;;;;;;;;;;;4.40;99.90;;;;;;4988293;28;20590;-80
2021/12/17 12:33:57;;;;;;;;;;;4.40;99.90;;;;;;4978567;28;19925;-80
2021/12/17 12:36:39;;;;;;;;;;;4.50;99.90;;;;;;4962152;28;19989;-80
2021/12/17 12:39:14;;;;;;;;;;;4.50;99.90;;;;;;4970002;28;19940;-80
2021/12/17 12:41:42;;;;;;;;;;;4.50;99.90;;;;;;4960354;28;19933;-80
2021/12/17 12:44:09;;;;;;;;;;;4.60;99.90;;;;;;4980698;28;19925;-80
2021/12/17 12:46:49;;;;;;;;;;;4.50;99.90;;;;;;4968431;28;19973;-80
2021/12/17 12:49:31;;;;;;;;;;;4.60;99.90;;;;;;4981530;28;19944;-80
2021/12/17 12:51:59;;;;;;;;;;;;;;;;;;4963320;28;20616;-81
2021/12/17 12:54:27;;;;;;;;;;;4.50;99.90;;;;;;4969526;28;20036;-80
2021/12/17 12:56:56;;;;;;;;;;;4.60;99.90;;;;;;4982764;28;19934;-80
2021/12/17 12:59:23;;;;;;;;;;;4.60;99.90;;;;;;4966163;28;19926;-79
2021/12/17 13:01:50;;;;;;;;;;;4.60;99.90;;;;;;4974512;28;19977;-80
2021/12/17 13:04:17;;;;;;;;;;;4.60;99.90;;;;;;4998625;28;19934;-80
2021/12/17 13:06:48;;;;;;;;;;;4.60;99.90;;;;;;4993900;28;19964;-80
2021/12/17 13:09:15;;;;;;;;;;;4.60;99.90;;;;;;4983713;28;19926;-80
2021/12/17 13:11:45;;;;;;;;;;;4.60;99.90;;;;;;4972700;28;19925;-80
2021/12/17 13:14:17;;;;;;;;;;;4.60;99.90;;;;;;4991944;28;19936;-80
2021/12/17 13:16:55;;;;;;;;;;;4.60;99.90;;;;;;4970035;28;19932;-80
2021/12/17 13:22:27;;;;;;;;;;;4.70;99.90;;;;;;4970930;28;20135;-81
2021/12/17 13:24:54;;;;;;;;;;;4.70;99.90;;;;;;4973382;28;19934;-81
2021/12/17 13:27:22;;;;;;;;;;;4.70;99.90;;;;;;4956931;28;20001;-81
2021/12/17 13:29:49;;;;;;;;;;;4.70;99.90;;;;;;4957659;28;19930;-82
2021/12/17 13:32:17;;;;;;;;;;;4.70;99.90;;;;;;4963686;28;19930;-81
2021/12/17 13:34:45;;;;;;;;;;;4.70;99.90;;;;;;4961538;28;19970;-81
2021/12/17 13:37:14;;;;;;;;;;;4.80;99.90;;;;;;4949789;28;19941;-81
2021/12/17 13:39:43;;;;;;;;;;;4.80;99.90;;;;;;4949998;28;19934;-81
2021/12/17 13:42:11;;;;;;;;;;;4.80;99.90;;;;;;4954591;28;20032;-81
2021/12/17 13:44:44;;;;;;;;;;;4.80;99.90;;;;;;4951277;28;19926;-81
2021/12/17 13:47:13;;;;;;;;;;;4.80;99.90;;;;;;4935064;28;19934;-81
2021/12/17 13:49:40;;;;;;;;;;;4.80;99.90;;;;;;4948538;28;20420;-81
2021/12/17 13:52:09;;;;;;;;;;;4.80;99.90;;;;;;4932963;28;20032;-81
2021/12/17 13:54:36;;;;;;;;;;;4.80;99.90;;;;;;4941588;28;20396;-80
2021/12/17 13:57:04;;;;;;;;;;;4.80;99.90;;;;;;4942789;28;19926;-81
2021/12/17 13:59:33;;;;;;;;;;;4.80;99.90;;;;;;4955750;28;20351;-81
2021/12/17 14:02:06;;;;;;;;;;;4.80;99.90;;;;;;4952295;28;21024;-81
2021/12/17 14:04:33;;;;;;;;;;;4.80;99.90;;;;;;4949718;28;19926;-81
2021/12/17 14:07:10;;;;;;;;;;;4.80;99.90;;;;;;4965132;28;19930;-81
2021/12/17 14:09:37;;;;;;;;;;;4.90;99.90;;;;;;4949745;28;19926;-81
2021/12/17 14:12:08;;;;;;;;;;;4.80;99.90;;;;;;4946245;28;19949;-81
2021/12/17 14:14:35;;;;;;;;;;;4.80;99.90;;;;;;4954114;28;21834;-81
2021/12/17 14:19:43;;;;;;;;;;;5.00;99.90;;;;;;5150638;23;19936;-78
2021/12/17 14:22:20;;;;;;;;;;;5.00;99.90;;;;;;4954168;28;20033;-80
2021/12/17 14:24:48;;;;;;;;;;;5.00;99.90;;;;;;4952458;28;20388;-78
2021/12/17 14:27:15;;;;;;;;;;;5.00;99.90;;;;;;4950323;28;19981;-78
2021/12/17 14:29:42;;;;;;;;;;;4.90;99.90;;;;;;4945483;28;19997;-78
2021/12/17 14:32:15;;;;;;;;;;;4.90;99.90;;;;;;4930480;28;19933;-79
2021/12/17 14:34:44;;;;;;;;;;;4.90;99.90;;;;;;4941378;28;20053;-78
2021/12/17 14:37:11;;;;;;;;;;;4.90;99.90;;;;;;4921601;28;20554;-78
2021/12/17 14:39:44;;;;;;;;;;;4.90;99.90;;;;;;4924883;28;19926;-79
2021/12/17 14:42:13;;;;;;;;;;;4.90;99.90;;;;;;4950814;28;19993;-78
2021/12/17 14:44:51;;;;;;;;;;;4.90;99.90;;;;;;4946858;28;19973;-78
2021/12/17 14:47:22;;;;;;;;;;;4.90;99.90;;;;;;4942747;28;20025;-78
2021/12/17 15:19:41;;;;;;;;;;;4.90;99.90;;;;;;4962714;29;20256;-78
2021/12/17 15:22:08;;;;;;;;;;;4.80;99.90;;;;;;4938065;29;20289;-79
2021/12/17 15:24:35;;;;;;;;;;;4.80;99.90;;;;;;4954703;28;19985;-79
2021/12/17 15:27:03;;;;;;;;;;;4.80;99.90;;;;;;4955380;28;19931;-79
2021/12/17 15:29:30;;;;;;;;;;;4.80;99.90;;;;;;4954768;28;20562;-79
2021/12/17 15:31:57;;;;;;;;;;;4.90;99.90;;;;;;4936070;28;19933;-79
2021/12/17 15:34:25;;;;;;;;;;;4.80;99.90;;;;;;4956422;28;19926;-80
2021/12/17 15:36:57;;;;;;;;;;;4.80;99.90;;;;;;4941805;29;19973;-80
2021/12/17 15:39:24;;;;;;;;;;;4.80;99.90;;;;;;4935014;29;19987;-80
2021/12/17 15:45:00;;;;;;;;;;;4.70;99.90;;;;;;4987622;28;19976;-79
2021/12/17 15:47:28;;;;;;;;;;;4.80;99.90;;;;;;4975680;28;19925;-78
2021/12/17 15:49:57;;;;;;;;;;;4.80;99.90;;;;;;4974413;28;20024;-79
2021/12/17 15:52:27;;;;;;;;;;;4.80;99.90;;;;;;4976705;28;20918;-79
2021/12/17 15:54:55;;;;;;;;;;;4.80;99.90;;;;;;4973314;28;19926;-78
2021/12/17 15:57:23;;;;;;;;;;;4.80;99.90;;;;;;4971187;28;20359;-79
2021/12/17 15:59:52;;;;;;;;;;;4.90;99.90;;;;;;4988821;28;19925;-78
2021/12/17 16:02:19;;;;;;;;;;;4.80;99.90;;;;;;4972147;28;19926;-81
2021/12/17 16:04:48;;;;;;;;;;;4.90;99.90;;;;;;4969542;28;19925;-78
2021/12/17 16:07:15;;;;;;;;;;;4.80;99.90;;;;;;4973223;28;19929;-78
2021/12/17 16:10:21;;;;;;;;;;;4.80;99.90;;;;;;4977695;28;19925;-79
2021/12/17 16:18:28;;;;;;;;;;;4.80;99.90;;;;;;4991637;28;20455;-78
2021/12/17 16:21:03;;;;;;;;;;;4.80;99.90;;;;;;4987970;28;19929;-79
2021/12/17 16:23:32;;;;;;;;;;;4.80;99.90;;;;;;4973341;28;20355;-80
2021/12/17 16:26:01;;;;;;;;;;;4.80;99.90;;;;;;4965977;28;19933;-78
2021/12/17 16:28:35;;;;;;;;;;;4.80;99.90;;;;;;4970318;28;19988;-79
2021/12/17 16:31:06;;;;;;;;;;;4.80;99.90;;;;;;4986184;28;19930;-78
2021/12/17 16:33:57;;;;;;;;;;;4.80;99.90;;;;;;4983409;28;19927;-78
2021/12/17 16:36:25;;;;;;;;;;;4.80;99.90;;;;;;4985204;28;19930;-79
2021/12/17 16:41:36;;;;;;;;;;;4.80;99.90;;;;;;5975388;22;19923;-81
2021/12/17 16:44:13;;;;;;;;;;;4.70;99.90;;;;;;4970211;28;19969;-83
2021/12/17 16:50:04;;;;;;;;;;;4.70;99.90;;;;;;4967298;28;19922;-79
2021/12/17 16:52:34;;;;;;;;;;;4.70;99.90;;;;;;4973465;28;19926;-80
2021/12/17 16:55:05;;;;;;;;;;;4.80;99.90;;;;;;4963729;28;19930;-79
2021/12/17 16:57:34;;;;;;;;;;;4.80;99.90;;;;;;4955677;28;19941;-80
2021/12/17 17:00:01;;;;;;;;;;;4.80;99.90;;;;;;4968794;28;20012;-79
2021/12/17 17:02:30;;;;;;;;;;;4.80;99.90;;;;;;4969075;28;20495;-79
2021/12/17 17:04:57;;;;;;;;;;;4.80;99.90;;;;;;4972655;28;19926;-79
2021/12/17 17:07:26;;;;;;;;;;;4.80;99.90;;;;;;4968551;28;19926;-79
2021/12/17 17:09:53;;;;;;;;;;;4.80;99.90;;;;;;4968100;28;20316;-80
2021/12/17 17:12:23;;;;;;;;;;;4.80;99.90;;;;;;4954463;28;19968;-79
2021/12/17 17:14:55;;;;;;;;;;;4.80;99.90;;;;;;4974198;28;20016;-80
2021/12/17 17:17:22;;;;;;;;;;;4.80;99.90;;;;;;4963640;28;19940;-79
2021/12/17 17:19:49;;;;;;;;;;;4.80;99.90;;;;;;4953798;28;20315;-79
2021/12/17 17:22:18;;;;;;;;;;;4.80;99.90;;;;;;4957005;28;20355;-79
2021/12/17 17:24:45;;;;;;;;;;;4.80;99.90;;;;;;4954524;28;19934;-78
2021/12/17 17:27:12;;;;;;;;;;;4.80;99.90;;;;;;4969159;28;19982;-77
2021/12/17 17:29:43;;;;;;;;;;;4.80;99.90;;;;;;4952526;28;19937;-79
2021/12/17 17:32:16;;;;;;;;;;;4.80;99.90;;;;;;4947218;28;19936;-80
2021/12/17 17:34:43;;;;;;;;;;;4.80;99.90;;;;;;4970875;28;20482;-78
2021/12/17 17:37:11;;;;;;;;;;;4.80;99.90;;;;;;4969459;28;19930;-78
2021/12/17 17:39:45;;;;;;;;;;;4.80;99.90;;;;;;4968616;28;19954;-79
2021/12/17 17:42:15;;;;;;;;;;;4.70;99.90;;;;;;4968083;28;19985;-81
2021/12/17 17:44:43;;;;;;;;;;;4.70;99.90;;;;;;4972319;28;19927;-79
2021/12/17 17:47:11;;;;;;;;;;;4.70;99.90;;;;;;4968292;28;19926;-78
2021/12/17 17:49:41;;;;;;;;;;;4.70;99.90;;;;;;4949327;28;19989;-79
2021/12/17 17:52:08;;;;;;;;;;;4.70;99.90;;;;;;4966035;28;20277;-79
2021/12/17 17:54:36;;;;;;;;;;;4.80;99.90;;;;;;4971775;28;19926;-79
2021/12/17 17:57:04;;;;;;;;;;;4.80;99.90;;;;;;4952828;28;20020;-81
2021/12/17 17:59:31;;;;;;;;;;;4.80;99.90;;;;;;4966374;28;19976;-79
2021/12/17 18:01:58;;;;;;;;;;;4.80;99.90;;;;;;4968781;28;19926;-79